Time,TemperatureF,DewpointF,PressureIn,WindDirection,WindDirectionDegrees,WindSpeedMPH,WindSpeedGustMPH,Humidity,HourlyPrecipIn,Conditions,Clouds,dailyrainin,SoftwareType,DateUTC
2013-11-05 00:13:00,49.0,-99.9,30.10,SSE,150,2.0,7.0,-999,-99.99,,,-99.99,,2013-11-05 06:13:00,
2013-11-05 00:22:00,49.0,-99.9,30.10,SSE,150,2.0,7.0,-999,-99.99,,,-99.99,,2013-11-05 06:22:00,
2013-11-05 00:32:00,49.0,-99.9,30.10,SSE,150,2.0,7.0,-999,-99.99,,,-99.99,,2013-11-05 06:32:00,
2013-11-05 00:40:00,50.0,-99.9,30.11,West,260,5.0,11.0,-999,-99.99,,,-99.99,,2013-11-05 06:40:00,
2013-11-05 01:11:00,50.0,-99.9,30.11,West,260,5.0,11.0,-999,-99.99,,,-99.99,,2013-11-05 07:11:00,
2013-11-05 01:22:00,50.0,-99.9,30.11,West,260,5.0,11.0,-999,-99.99,,,-99.99,,2013-11-05 07:22:00,
2013-11-05 01:32:00,50.0,-99.9,30.11,West,260,5.0,11.0,-999,-99.99,,,-99.99,,2013-11-05 07:32:00,
2013-11-05 01:40:00,49.0,-99.9,30.13,West,260,3.0,8.0,-999,-99.99,,,-99.99,,2013-11-05 07:40:00,
2013-11-05 02:12:00,49.0,-99.9,30.13,West,260,3.0,8.0,-999,-99.99,,,-99.99,,2013-11-05 08:12:00,
2013-11-05 02:22:00,49.0,-99.9,30.13,West,260,3.0,8.0,-999,-99.99,,,-99.99,,2013-11-05 08:22:00,
2013-11-05 02:32:00,49.0,-99.9,30.13,West,260,3.0,8.0,-999,-99.99,,,-99.99,,2013-11-05 08:32:00,
2013-11-05 02:40:00,49.0,-99.9,30.14,West,270,3.0,9.0,-999,-99.99,,,-99.99,,2013-11-05 08:40:00,
2013-11-05 03:12:00,49.0,-99.9,30.14,West,270,3.0,9.0,-999,-99.99,,,-99.99,,2013-11-05 09:12:00,
2013-11-05 03:22:00,49.0,-99.9,30.14,West,270,3.0,9.0,-999,-99.99,,,-99.99,,2013-11-05 09:22:00,
2013-11-05 03:33:00,49.0,-99.9,30.14,West,270,3.0,9.0,-999,-99.99,,,-99.99,,2013-11-05 09:33:00,
2013-11-05 03:40:00,49.0,-99.9,30.16,West,280,7.0,21.0,-999,-99.99,,,-99.99,,2013-11-05 09:40:00,
2013-11-05 04:13:00,49.0,-99.9,30.16,West,280,7.0,21.0,-999,-99.99,,,-99.99,,2013-11-05 10:13:00,
2013-11-05 04:23:00,49.0,-99.9,30.16,West,280,7.0,21.0,-999,-99.99,,,-99.99,,2013-11-05 10:23:00,
2013-11-05 04:33:00,49.0,-99.9,30.16,West,280,7.0,21.0,-999,-99.99,,,-99.99,,2013-11-05 10:33:00,
2013-11-05 04:40:00,47.0,-99.9,30.18,WNW,290,6.0,8.0,-999,-99.99,,,-99.99,,2013-11-05 10:40:00,
2013-11-05 05:13:00,47.0,-99.9,30.18,WNW,290,6.0,8.0,-999,-99.99,,,-99.99,,2013-11-05 11:13:00,
2013-11-05 05:22:00,47.0,-99.9,30.18,WNW,290,6.0,8.0,-999,-99.99,,,-99.99,,2013-11-05 11:22:00,
2013-11-05 05:33:00,47.0,-99.9,30.18,WNW,290,6.0,8.0,-999,-99.99,,,-99.99,,2013-11-05 11:33:00,
2013-11-05 05:40:00,45.0,-99.9,30.20,WSW,250,2.0,5.0,-999,-99.99,,,-99.99,,2013-11-05 11:40:00,
2013-11-05 06:12:00,45.0,-99.9,30.20,WSW,250,2.0,5.0,-999,-99.99,,,-99.99,,2013-11-05 12:12:00,
2013-11-05 06:22:00,45.0,-99.9,30.20,WSW,250,2.0,5.0,-999,-99.99,,,-99.99,,2013-11-05 12:22:00,
2013-11-05 06:32:00,45.0,-99.9,30.20,WSW,250,2.0,5.0,-999,-99.99,,,-99.99,,2013-11-05 12:32:00,
2013-11-05 06:40:00,43.0,-99.9,30.21,West,270,2.0,7.0,-999,-99.99,,,-99.99,,2013-11-05 12:40:00,
2013-11-05 07:11:00,43.0,-99.9,30.21,West,270,2.0,7.0,-999,-99.99,,,-99.99,,2013-11-05 13:11:00,
2013-11-05 07:22:00,43.0,-99.9,30.21,West,270,2.0,7.0,-999,-99.99,,,-99.99,,2013-11-05 13:22:00,
2013-11-05 07:32:00,43.0,-99.9,30.21,West,270,2.0,7.0,-999,-99.99,,,-99.99,,2013-11-05 13:32:00,
2013-11-05 07:40:00,47.0,-99.9,30.23,SW,230,2.0,5.0,-999,-99.99,,,-99.99,,2013-11-05 13:40:00,
2013-11-05 08:12:00,47.0,-99.9,30.23,SW,230,2.0,5.0,-999,-99.99,,,-99.99,,2013-11-05 14:12:00,
2013-11-05 08:22:00,47.0,-99.9,30.23,SW,230,2.0,5.0,-999,-99.99,,,-99.99,,2013-11-05 14:22:00,
2013-11-05 08:32:00,47.0,-99.9,30.23,SW,230,2.0,5.0,-999,-99.99,,,-99.99,,2013-11-05 14:32:00,
2013-11-05 08:40:00,48.0,-99.9,30.24,SW,230,5.0,8.0,-999,-99.99,,,-99.99,,2013-11-05 14:40:00,
2013-11-05 09:11:00,48.0,-99.9,30.24,SW,230,5.0,8.0,-999,-99.99,,,-99.99,,2013-11-05 15:11:00,
2013-11-05 09:22:00,48.0,-99.9,30.24,SW,230,5.0,8.0,-999,-99.99,,,-99.99,,2013-11-05 15:22:00,
2013-11-05 09:33:00,48.0,-99.9,30.24,SW,230,5.0,8.0,-999,-99.99,,,-99.99,,2013-11-05 15:33:00,
2013-11-05 10:40:00,50.0,-99.9,30.24,West,270,3.0,9.0,-999,-99.99,,,-99.99,,2013-11-05 16:40:00,
2013-11-05 11:12:00,50.0,-99.9,30.24,West,270,3.0,9.0,-999,-99.99,,,-99.99,,2013-11-05 17:12:00,
2013-11-05 11:22:00,50.0,-99.9,30.24,West,270,3.0,9.0,-999,-99.99,,,-99.99,,2013-11-05 17:22:00,
2013-11-05 11:32:00,50.0,-99.9,30.24,West,270,3.0,9.0,-999,-99.99,,,-99.99,,2013-11-05 17:32:00,
2013-11-05 11:40:00,48.0,-99.9,30.22,SSE,150,9.0,15.0,-999,-99.99,,,-99.99,,2013-11-05 17:40:00,
2013-11-05 12:12:00,48.0,-99.9,30.22,SSE,150,9.0,15.0,-999,-99.99,,,-99.99,,2013-11-05 18:12:00,
2013-11-05 12:23:00,48.0,-99.9,30.22,SSE,150,9.0,15.0,-999,-99.99,,,-99.99,,2013-11-05 18:23:00,
2013-11-05 12:33:00,48.0,-99.9,30.22,SSE,150,9.0,15.0,-999,-99.99,,,-99.99,,2013-11-05 18:33:00,
2013-11-05 12:40:00,50.0,-99.9,30.21,NW,320,7.0,11.0,-999,-99.99,,,-99.99,,2013-11-05 18:40:00,
2013-11-05 13:11:00,50.0,-99.9,30.21,NW,320,7.0,11.0,-999,-99.99,,,-99.99,,2013-11-05 19:11:00,
2013-11-05 13:22:00,50.0,-99.9,30.21,NW,320,7.0,11.0,-999,-99.99,,,-99.99,,2013-11-05 19:22:00,
2013-11-05 13:32:00,50.0,-99.9,30.21,NW,320,7.0,11.0,-999,-99.99,,,-99.99,,2013-11-05 19:32:00,
2013-11-05 13:40:00,49.0,-99.9,30.20,SSE,150,6.0,11.0,-999,-99.99,,,-99.99,,2013-11-05 19:40:00,
2013-11-05 14:12:00,49.0,-99.9,30.20,SSE,150,6.0,11.0,-999,-99.99,,,-99.99,,2013-11-05 20:12:00,
2013-11-05 14:22:00,49.0,-99.9,30.20,SSE,150,6.0,11.0,-999,-99.99,,,-99.99,,2013-11-05 20:22:00,
2013-11-05 14:32:00,49.0,-99.9,30.20,SSE,150,6.0,11.0,-999,-99.99,,,-99.99,,2013-11-05 20:32:00,
2013-11-05 14:40:00,49.0,-99.9,30.18,SSE,160,5.0,10.0,-999,-99.99,,,-99.99,,2013-11-05 20:40:00,
2013-11-05 15:12:00,49.0,-99.9,30.18,SSE,160,5.0,10.0,-999,-99.99,,,-99.99,,2013-11-05 21:12:00,
2013-11-05 15:22:00,49.0,-99.9,30.18,SSE,160,5.0,10.0,-999,-99.99,,,-99.99,,2013-11-05 21:22:00,
2013-11-05 15:33:00,49.0,-99.9,30.18,SSE,160,5.0,10.0,-999,-99.99,,,-99.99,,2013-11-05 21:33:00,
2013-11-05 15:40:00,49.0,-99.9,30.16,South,180,2.0,5.0,-999,-99.99,,,-99.99,,2013-11-05 21:40:00,
2013-11-05 16:13:00,49.0,-99.9,30.16,South,180,2.0,5.0,-999,-99.99,,,-99.99,,2013-11-05 22:13:00,
2013-11-05 16:23:00,49.0,-99.9,30.16,South,180,2.0,5.0,-999,-99.99,,,-99.99,,2013-11-05 22:23:00,
2013-11-05 16:34:00,49.0,-99.9,30.16,South,180,2.0,5.0,-999,-99.99,,,-99.99,,2013-11-05 22:34:00,
2013-11-05 16:40:00,48.0,-99.9,30.14,SSE,150,2.0,3.0,-999,-99.99,,,-99.99,,2013-11-05 22:40:00,
2013-11-05 17:12:00,48.0,-99.9,30.14,SSE,150,2.0,3.0,-999,-99.99,,,-99.99,,2013-11-05 23:12:00,
2013-11-05 17:22:00,48.0,-99.9,30.14,SSE,150,2.0,3.0,-999,-99.99,,,-99.99,,2013-11-05 23:22:00,
2013-11-05 17:34:00,48.0,-99.9,30.14,SSE,150,2.0,3.0,-999,-99.99,,,-99.99,,2013-11-05 23:34:00,
2013-11-05 17:40:00,48.0,-99.9,30.12,SE,140,5.0,6.0,-999,-99.99,,,-99.99,,2013-11-05 23:40:00,
2013-11-05 18:12:00,48.0,-99.9,30.12,SE,140,5.0,6.0,-999,-99.99,,,-99.99,,2013-11-06 00:12:00,
2013-11-05 18:22:00,48.0,-99.9,30.12,SE,140,5.0,6.0,-999,-99.99,,,-99.99,,2013-11-06 00:22:00,
2013-11-05 18:32:00,48.0,-99.9,30.12,SE,140,5.0,6.0,-999,-99.99,,,-99.99,,2013-11-06 00:32:00,
2013-11-05 18:40:00,47.0,-99.9,30.09,ESE,110,6.0,7.0,-999,-99.99,,,-99.99,,2013-11-06 00:40:00,
2013-11-05 19:11:00,47.0,-99.9,30.09,ESE,110,6.0,7.0,-999,-99.99,,,-99.99,,2013-11-06 01:11:00,
2013-11-05 19:22:00,47.0,-99.9,30.09,ESE,110,6.0,7.0,-999,-99.99,,,-99.99,,2013-11-06 01:22:00,
2013-11-05 19:32:00,47.0,-99.9,30.09,ESE,110,6.0,7.0,-999,-99.99,,,-99.99,,2013-11-06 01:32:00,
2013-11-05 19:40:00,48.0,-99.9,30.06,East,90,9.0,11.0,-999,-99.99,,,-99.99,,2013-11-06 01:40:00,
2013-11-05 20:13:00,48.0,-99.9,30.06,East,90,9.0,11.0,-999,-99.99,,,-99.99,,2013-11-06 02:13:00,
2013-11-05 20:23:00,48.0,-99.9,30.06,East,90,9.0,11.0,-999,-99.99,,,-99.99,,2013-11-06 02:23:00,
2013-11-05 20:32:00,48.0,-99.9,30.06,East,90,9.0,11.0,-999,-99.99,,,-99.99,,2013-11-06 02:32:00,
2013-11-05 20:40:00,48.0,-99.9,30.02,East,80,11.0,14.0,-999,-99.99,,,-99.99,,2013-11-06 02:40:00,
2013-11-05 21:12:00,48.0,-99.9,30.02,East,80,11.0,14.0,-999,-99.99,,,-99.99,,2013-11-06 03:12:00,
2013-11-05 21:22:00,48.0,-99.9,30.02,East,80,11.0,14.0,-999,-99.99,,,-99.99,,2013-11-06 03:22:00,
2013-11-05 21:34:00,48.0,-99.9,30.02,East,80,11.0,14.0,-999,-99.99,,,-99.99,,2013-11-06 03:34:00,
2013-11-05 22:14:00,49.0,-99.9,30.01,ENE,60,9.0,11.0,-999,-99.99,,,-99.99,,2013-11-06 04:14:00,
2013-11-05 22:24:00,48.0,-99.9,29.98,ENE,70,8.0,23.0,-999,-99.99,,,-99.99,,2013-11-06 04:24:00,
2013-11-05 22:34:00,48.0,-99.9,29.98,ENE,70,8.0,23.0,-999,-99.99,,,-99.99,,2013-11-06 04:34:00,
2013-11-05 22:43:00,48.0,-99.9,29.98,ENE,70,8.0,23.0,-999,-99.99,,,-99.99,,2013-11-06 04:43:00,
2013-11-05 22:54:00,48.0,-99.9,29.98,ENE,70,8.0,23.0,-999,-99.99,,,-99.99,,2013-11-06 04:54:00,
2013-11-05 23:13:00,48.0,-99.9,29.96,East,90,8.0,16.0,-999,-99.99,,,-99.99,,2013-11-06 05:13:00,
2013-11-05 23:40:00,50.0,-99.9,29.91,SSE,150,8.0,13.0,-999,-99.99,,,-99.99,,2013-11-06 05:40:00,
2013-11-05 23:44:00,49.0,-99.9,29.93,ESE,110,9.0,16.0,-999,-99.99,,,-99.99,,2013-11-06 05:44:00,
2013-11-05 23:54:00,49.0,-99.9,29.93,ESE,110,9.0,16.0,-999,-99.99,,,-99.99,,2013-11-06 05:54:00,